sensor_id;sensor_type;location;lat;lon;timestamp;temperature;humidity
52024;DHT22;38038;45.922;13.604;2023-12-14T10:53:25;9.40;99.90
52024;DHT22;38038;45.922;13.604;2023-12-14T10:55:52;9.50;99.90
52024;DHT22;38038;45.922;13.604;2023-12-14T10:58:19;9.70;99.90
52024;DHT22;38038;45.922;13.604;2023-12-14T11:01:00;9.70;99.90
52024;DHT22;38038;45.922;13.604;2023-12-14T11:03:35;9.70;99.90
52024;DHT22;38038;45.922;13.604;2023-12-14T11:06:01;9.70;99.90
52024;DHT22;38038;45.922;13.604;2023-12-14T11:08:27;9.70;99.90
52024;DHT22;38038;45.922;13.604;2023-12-14T11:10:54;9.70;99.90
52024;DHT22;38038;45.922;13.604;2023-12-14T11:13:24;9.70;99.90
52024;DHT22;38038;45.922;13.604;2023-12-14T11:15:53;9.80;99.90
52024;DHT22;38038;45.922;13.604;2023-12-14T11:18:22;9.90;99.90
52024;DHT22;38038;45.922;13.604;2023-12-14T11:21:01;9.80;99.90
52024;DHT22;38038;45.922;13.604;2023-12-14T11:23:28;9.90;99.90
52024;DHT22;38038;45.922;13.604;2023-12-14T11:26:09;9.90;99.90
52024;DHT22;38038;45.922;13.604;2023-12-14T11:28:40;10.00;99.90
52024;DHT22;38038;45.922;13.604;2023-12-14T11:31:12;10.00;99.90
52024;DHT22;38038;45.922;13.604;2023-12-14T11:33:38;10.00;99.90
52024;DHT22;38038;45.922;13.604;2023-12-14T11:36:04;10.00;99.90
52024;DHT22;38038;45.922;13.604;2023-12-14T11:38:30;10.10;99.90
52024;DHT22;38038;45.922;13.604;2023-12-14T11:40:58;10.10;99.90
52024;DHT22;38038;45.922;13.604;2023-12-14T11:43:24;10.20;99.90
52024;DHT22;38038;45.922;13.604;2023-12-14T11:45:52;10.20;99.90
52024;DHT22;38038;45.922;13.604;2023-12-14T11:48:19;10.20;99.90
52024;DHT22;38038;45.922;13.604;2023-12-14T11:50:46;10.20;99.90
52024;DHT22;38038;45.922;13.604;2023-12-14T11:53:13;10.10;99.90
52024;DHT22;38038;45.922;13.604;2023-12-14T11:55:41;10.10;99.90
52024;DHT22;38038;45.922;13.604;2023-12-14T11:58:08;10.20;99.90
52024;DHT22;38038;45.922;13.604;2023-12-14T12:00:34;10.20;99.90
52024;DHT22;38038;45.922;13.604;2023-12-14T12:03:21;10.20;99.90
52024;DHT22;38038;45.922;13.604;2023-12-14T12:05:50;10.30;99.90
52024;DHT22;38038;45.922;13.604;2023-12-14T12:08:19;10.30;99.90
52024;DHT22;38038;45.922;13.604;2023-12-14T12:10:46;10.30;99.90
52024;DHT22;38038;45.922;13.604;2023-12-14T12:13:17;10.20;99.90
52024;DHT22;38038;45.922;13.604;2023-12-14T12:15:43;10.20;99.90
52024;DHT22;38038;45.922;13.604;2023-12-14T12:18:11;10.20;99.90
52024;DHT22;38038;45.922;13.604;2023-12-14T12:20:38;10.00;99.90
52024;DHT22;38038;45.922;13.604;2023-12-14T12:23:04;9.90;99.90
52024;DHT22;38038;45.922;13.604;2023-12-14T12:25:30;9.80;99.90
52024;DHT22;38038;45.922;13.604;2023-12-14T12:27:57;9.90;99.90
52024;DHT22;38038;45.922;13.604;2023-12-14T12:30:23;9.90;99.90
52024;DHT22;38038;45.922;13.604;2023-12-14T12:35:20;9.90;99.90
52024;DHT22;38038;45.922;13.604;2023-12-14T12:37:46;9.90;99.90
52024;DHT22;38038;45.922;13.604;2023-12-14T12:40:12;10.00;99.90
52024;DHT22;38038;45.922;13.604;2023-12-14T12:42:38;10.00;99.90
52024;DHT22;38038;45.922;13.604;2023-12-14T12:45:05;9.90;99.90
52024;DHT22;38038;45.922;13.604;2023-12-14T12:47:31;9.90;99.90
52024;DHT22;38038;45.922;13.604;2023-12-14T12:49:56;10.00;99.90
52024;DHT22;38038;45.922;13.604;2023-12-14T12:52:22;10.00;99.90
52024;DHT22;38038;45.922;13.604;2023-12-14T12:54:48;10.10;99.90
52024;DHT22;38038;45.922;13.604;2023-12-14T12:57:13;10.10;99.90
52024;DHT22;38038;45.922;13.604;2023-12-14T12:59:39;10.00;99.90
52024;DHT22;38038;45.922;13.604;2023-12-14T13:02:05;10.10;99.90
52024;DHT22;38038;45.922;13.604;2023-12-14T13:04:31;10.10;99.90
52024;DHT22;38038;45.922;13.604;2023-12-14T13:06:57;10.10;99.90
52024;DHT22;38038;45.922;13.604;2023-12-14T13:09:23;10.20;99.90
52024;DHT22;38038;45.922;13.604;2023-12-14T13:11:49;10.20;99.90
52024;DHT22;38038;45.922;13.604;2023-12-14T13:14:16;10.20;99.90
52024;DHT22;38038;45.922;13.604;2023-12-14T13:16:42;10.20;99.90
52024;DHT22;38038;45.922;13.604;2023-12-14T13:19:08;10.20;99.90
52024;DHT22;38038;45.922;13.604;2023-12-14T13:21:35;10.10;99.90
52024;DHT22;38038;45.922;13.604;2023-12-14T13:24:02;10.10;99.90
52024;DHT22;38038;45.922;13.604;2023-12-14T13:26:28;10.10;99.90
52024;DHT22;38038;45.922;13.604;2023-12-14T13:28:54;10.20;99.90
52024;DHT22;38038;45.922;13.604;2023-12-14T13:31:20;10.30;99.90
52024;DHT22;38038;45.922;13.604;2023-12-14T13:33:47;10.20;99.90
52024;DHT22;38038;45.922;13.604;2023-12-14T13:36:13;10.20;99.90
52024;DHT22;38038;45.922;13.604;2023-12-14T13:38:40;10.10;99.90
52024;DHT22;38038;45.922;13.604;2023-12-14T13:41:07;10.10;99.90
52024;DHT22;38038;45.922;13.604;2023-12-14T13:43:33;10.00;99.90
52024;DHT22;38038;45.922;13.604;2023-12-14T13:45:59;10.10;99.90
52024;DHT22;38038;45.922;13.604;2023-12-14T13:48:25;10.10;99.90
52024;DHT22;38038;45.922;13.604;2023-12-14T13:50:52;10.10;99.90
52024;DHT22;38038;45.922;13.604;2023-12-14T13:53:17;10.10;99.90
52024;DHT22;38038;45.922;13.604;2023-12-14T13:55:43;10.10;99.90
52024;DHT22;38038;45.922;13.604;2023-12-14T13:58:09;10.00;99.90
52024;DHT22;38038;45.922;13.604;2023-12-14T14:00:34;9.90;99.90
52024;DHT22;38038;45.922;13.604;2023-12-14T14:03:01;9.80;99.90
52024;DHT22;38038;45.922;13.604;2023-12-14T14:05:27;9.70;99.90
52024;DHT22;38038;45.922;13.604;2023-12-14T14:07:53;9.60;99.90
52024;DHT22;38038;45.922;13.604;2023-12-14T14:10:21;9.50;99.90
52024;DHT22;38038;45.922;13.604;2023-12-14T14:12:47;9.50;99.90
52024;DHT22;38038;45.922;13.604;2023-12-14T14:15:13;9.50;99.90
52024;DHT22;38038;45.922;13.604;2023-12-14T14:17:39;9.50;99.90
52024;DHT22;38038;45.922;13.604;2023-12-14T14:20:05;9.50;99.90
52024;DHT22;38038;45.922;13.604;2023-12-14T14:22:32;9.50;99.90
52024;DHT22;38038;45.922;13.604;2023-12-14T14:24:59;9.50;99.90
52024;DHT22;38038;45.922;13.604;2023-12-14T14:27:25;9.50;99.90
52024;DHT22;38038;45.922;13.604;2023-12-14T14:29:51;9.40;99.90
52024;DHT22;38038;45.922;13.604;2023-12-14T14:32:19;9.30;99.90
52024;DHT22;38038;45.922;13.604;2023-12-14T14:34:45;9.40;99.90
52024;DHT22;38038;45.922;13.604;2023-12-14T14:37:11;9.50;99.90
52024;DHT22;38038;45.922;13.604;2023-12-14T14:39:36;9.50;99.90
52024;DHT22;38038;45.922;13.604;2023-12-14T14:42:05;9.50;99.90
52024;DHT22;38038;45.922;13.604;2023-12-14T14:44:31;9.50;99.90
52024;DHT22;38038;45.922;13.604;2023-12-14T14:46:57;9.40;99.90
52024;DHT22;38038;45.922;13.604;2023-12-14T14:49:23;9.30;99.90
52024;DHT22;38038;45.922;13.604;2023-12-14T14:51:49;9.20;99.90
52024;DHT22;38038;45.922;13.604;2023-12-14T14:54:14;9.30;99.90
52024;DHT22;38038;45.922;13.604;2023-12-14T14:56:43;9.30;99.90
52024;DHT22;38038;45.922;13.604;2023-12-14T14:59:09;9.30;99.90
52024;DHT22;38038;45.922;13.604;2023-12-14T15:01:37;9.40;99.90
52024;DHT22;38038;45.922;13.604;2023-12-14T15:04:03;9.40;99.90
52024;DHT22;38038;45.922;13.604;2023-12-14T15:06:29;9.30;99.90
52024;DHT22;38038;45.922;13.604;2023-12-14T15:08:54;9.30;99.90
52024;DHT22;38038;45.922;13.604;2023-12-14T15:11:20;9.30;99.90
52024;DHT22;38038;45.922;13.604;2023-12-14T15:13:46;9.30;99.90
52024;DHT22;38038;45.922;13.604;2023-12-14T15:16:12;9.30;99.90
52024;DHT22;38038;45.922;13.604;2023-12-14T15:18:38;9.20;99.90
52024;DHT22;38038;45.922;13.604;2023-12-14T15:21:10;9.10;99.90
52024;DHT22;38038;45.922;13.604;2023-12-14T15:23:36;9.10;99.90
52024;DHT22;38038;45.922;13.604;2023-12-14T15:26:02;9.00;99.90
52024;DHT22;38038;45.922;13.604;2023-12-14T15:28:28;8.80;99.90
52024;DHT22;38038;45.922;13.604;2023-12-14T15:30:54;8.70;99.90
52024;DHT22;38038;45.922;13.604;2023-12-14T15:33:19;8.70;99.90
52024;DHT22;38038;45.922;13.604;2023-12-14T15:35:46;8.60;99.90
52024;DHT22;38038;45.922;13.604;2023-12-14T15:38:11;8.60;99.90
52024;DHT22;38038;45.922;13.604;2023-12-14T15:40:37;8.40;99.90
52024;DHT22;38038;45.922;13.604;2023-12-14T15:43:04;8.20;99.90
52024;DHT22;38038;45.922;13.604;2023-12-14T15:45:30;8.00;99.90
52024;DHT22;38038;45.922;13.604;2023-12-14T15:48:02;8.00;99.90
52024;DHT22;38038;45.922;13.604;2023-12-14T15:50:28;8.00;99.90
52024;DHT22;38038;45.922;13.604;2023-12-14T15:52:54;7.90;99.90
52024;DHT22;38038;45.922;13.604;2023-12-14T15:55:20;8.00;99.90
52024;DHT22;38038;45.922;13.604;2023-12-14T15:57:48;7.90;99.90
52024;DHT22;38038;45.922;13.604;2023-12-14T16:00:14;7.70;99.90
52024;DHT22;38038;45.922;13.604;2023-12-14T16:02:40;7.70;99.90
52024;DHT22;38038;45.922;13.604;2023-12-14T16:05:06;7.70;99.90
52024;DHT22;38038;45.922;13.604;2023-12-14T16:07:34;7.60;99.90
52024;DHT22;38038;45.922;13.604;2023-12-14T16:10:00;7.60;99.90
52024;DHT22;38038;45.922;13.604;2023-12-14T16:12:25;7.60;99.90
52024;DHT22;38038;45.922;13.604;2023-12-14T16:14:51;7.80;99.90
52024;DHT22;38038;45.922;13.604;2023-12-14T16:17:18;7.90;99.90
52024;DHT22;38038;45.922;13.604;2023-12-14T16:19:44;7.80;99.90
52024;DHT22;38038;45.922;13.604;2023-12-14T16:22:10;7.70;99.90
52024;DHT22;38038;45.922;13.604;2023-12-14T16:24:35;7.60;99.90
52024;DHT22;38038;45.922;13.604;2023-12-14T16:27:01;7.50;99.90
52024;DHT22;38038;45.922;13.604;2023-12-14T16:29:28;7.60;99.90
52024;DHT22;38038;45.922;13.604;2023-12-14T16:31:53;7.60;99.90
52024;DHT22;38038;45.922;13.604;2023-12-14T16:34:19;7.50;99.90
52024;DHT22;38038;45.922;13.604;2023-12-14T16:36:48;7.40;99.90
52024;DHT22;38038;45.922;13.604;2023-12-14T16:39:14;7.40;99.90
52024;DHT22;38038;45.922;13.604;2023-12-14T16:41:40;7.50;99.90
52024;DHT22;38038;45.922;13.604;2023-12-14T16:44:06;7.60;99.90
52024;DHT22;38038;45.922;13.604;2023-12-14T16:46:31;7.50;99.90
52024;DHT22;38038;45.922;13.604;2023-12-14T16:48:57;7.50;99.90
52024;DHT22;38038;45.922;13.604;2023-12-14T16:51:23;7.30;99.90
52024;DHT22;38038;45.922;13.604;2023-12-14T16:53:53;7.20;99.90
52024;DHT22;38038;45.922;13.604;2023-12-14T16:56:19;7.00;99.90
52024;DHT22;38038;45.922;13.604;2023-12-14T16:58:47;6.80;99.90
52024;DHT22;38038;45.922;13.604;2023-12-14T17:01:15;6.70;99.90
52024;DHT22;38038;45.922;13.604;2023-12-14T17:03:41;6.60;99.90
52024;DHT22;38038;45.922;13.604;2023-12-14T17:06:07;6.50;99.90
52024;DHT22;38038;45.922;13.604;2023-12-14T17:08:35;6.50;99.90
52024;DHT22;38038;45.922;13.604;2023-12-14T17:11:01;6.60;99.90
52024;DHT22;38038;45.922;13.604;2023-12-14T17:13:27;6.50;99.90
52024;DHT22;38038;45.922;13.604;2023-12-14T17:15:52;6.50;99.90
52024;DHT22;38038;45.922;13.604;2023-12-14T17:18:18;6.60;99.90
52024;DHT22;38038;45.922;13.604;2023-12-14T17:20:44;6.50;99.90
52024;DHT22;38038;45.922;13.604;2023-12-14T17:23:09;6.30;99.90
52024;DHT22;38038;45.922;13.604;2023-12-14T17:25:35;6.20;99.90
52024;DHT22;38038;45.922;13.604;2023-12-14T17:28:01;6.20;99.90
52024;DHT22;38038;45.922;13.604;2023-12-14T17:30:26;6.20;99.90
52024;DHT22;38038;45.922;13.604;2023-12-14T17:32:52;6.20;99.90
52024;DHT22;38038;45.922;13.604;2023-12-14T17:35:18;6.20;99.90
52024;DHT22;38038;45.922;13.604;2023-12-14T17:37:44;6.30;99.90
52024;DHT22;38038;45.922;13.604;2023-12-14T17:40:10;6.20;99.90
52024;DHT22;38038;45.922;13.604;2023-12-14T17:42:37;6.10;99.90
52024;DHT22;38038;45.922;13.604;2023-12-14T17:45:03;6.10;99.90
52024;DHT22;38038;45.922;13.604;2023-12-14T17:47:29;6.20;99.90
52024;DHT22;38038;45.922;13.604;2023-12-14T17:49:55;6.30;99.90
52024;DHT22;38038;45.922;13.604;2023-12-14T17:52:22;6.30;99.90
52024;DHT22;38038;45.922;13.604;2023-12-14T17:54:48;6.40;99.90
52024;DHT22;38038;45.922;13.604;2023-12-14T17:57:16;6.50;99.90
52024;DHT22;38038;45.922;13.604;2023-12-14T17:59:42;6.50;99.90
52024;DHT22;38038;45.922;13.604;2023-12-14T18:02:08;6.40;99.90
52024;DHT22;38038;45.922;13.604;2023-12-14T18:04:36;6.30;99.90
52024;DHT22;38038;45.922;13.604;2023-12-14T18:07:02;6.20;99.90
52024;DHT22;38038;45.922;13.604;2023-12-14T18:09:28;6.10;99.90
52024;DHT22;38038;45.922;13.604;2023-12-14T18:11:54;6.10;99.90
52024;DHT22;38038;45.922;13.604;2023-12-14T18:14:21;6.30;99.90
52024;DHT22;38038;45.922;13.604;2023-12-14T18:16:46;6.20;99.90
52024;DHT22;38038;45.922;13.604;2023-12-14T18:19:12;6.00;99.90
52024;DHT22;38038;45.922;13.604;2023-12-14T18:21:38;5.90;99.90
52024;DHT22;38038;45.922;13.604;2023-12-14T18:24:05;5.80;99.90
52024;DHT22;38038;45.922;13.604;2023-12-14T18:26:31;5.80;99.90
52024;DHT22;38038;45.922;13.604;2023-12-14T18:28:57;5.70;99.90
52024;DHT22;38038;45.922;13.604;2023-12-14T18:31:23;5.60;99.90
52024;DHT22;38038;45.922;13.604;2023-12-14T18:33:50;5.70;99.90
52024;DHT22;38038;45.922;13.604;2023-12-14T18:36:20;5.80;99.90
52024;DHT22;38038;45.922;13.604;2023-12-14T18:38:46;5.80;99.90
52024;DHT22;38038;45.922;13.604;2023-12-14T18:41:12;5.90;99.90
52024;DHT22;38038;45.922;13.604;2023-12-14T18:43:39;6.00;99.90
52024;DHT22;38038;45.922;13.604;2023-12-14T18:46:06;6.10;99.90
52024;DHT22;38038;45.922;13.604;2023-12-14T18:48:31;6.10;99.90
52024;DHT22;38038;45.922;13.604;2023-12-14T18:50:59;6.00;99.90
52024;DHT22;38038;45.922;13.604;2023-12-14T18:53:26;6.00;99.90
52024;DHT22;38038;45.922;13.604;2023-12-14T18:55:52;6.20;99.90
52024;DHT22;38038;45.922;13.604;2023-12-14T18:58:17;6.30;99.90
52024;DHT22;38038;45.922;13.604;2023-12-14T19:00:44;6.20;99.90
52024;DHT22;38038;45.922;13.604;2023-12-14T19:03:13;6.20;99.90
52024;DHT22;38038;45.922;13.604;2023-12-14T19:05:39;6.20;99.90
52024;DHT22;38038;45.922;13.604;2023-12-14T19:08:05;6.00;99.90
52024;DHT22;38038;45.922;13.604;2023-12-14T19:10:31;5.90;99.90
52024;DHT22;38038;45.922;13.604;2023-12-14T19:12:57;5.90;99.90
52024;DHT22;38038;45.922;13.604;2023-12-14T19:15:22;5.80;99.90
52024;DHT22;38038;45.922;13.604;2023-12-14T19:17:49;5.80;99.90
52024;DHT22;38038;45.922;13.604;2023-12-14T19:20:15;5.80;99.90
52024;DHT22;38038;45.922;13.604;2023-12-14T19:22:41;5.90;99.90
52024;DHT22;38038;45.922;13.604;2023-12-14T19:25:10;6.00;99.90
52024;DHT22;38038;45.922;13.604;2023-12-14T19:27:38;5.80;99.90
52024;DHT22;38038;45.922;13.604;2023-12-14T19:30:05;5.60;99.90
52024;DHT22;38038;45.922;13.604;2023-12-14T19:32:34;5.40;99.90
52024;DHT22;38038;45.922;13.604;2023-12-14T19:35:03;5.30;99.90
52024;DHT22;38038;45.922;13.604;2023-12-14T19:37:29;5.20;99.90
52024;DHT22;38038;45.922;13.604;2023-12-14T19:39:57;5.20;99.90
52024;DHT22;38038;45.922;13.604;2023-12-14T19:42:23;5.30;99.90
52024;DHT22;38038;45.922;13.604;2023-12-14T19:44:48;5.10;99.90
52024;DHT22;38038;45.922;13.604;2023-12-14T19:47:14;5.10;99.90
52024;DHT22;38038;45.922;13.604;2023-12-14T19:49:42;5.00;99.90
52024;DHT22;38038;45.922;13.604;2023-12-14T19:52:12;5.00;99.90
52024;DHT22;38038;45.922;13.604;2023-12-14T19:54:40;4.90;99.90
52024;DHT22;38038;45.922;13.604;2023-12-14T19:57:09;4.90;99.90
52024;DHT22;38038;45.922;13.604;2023-12-14T19:59:36;4.90;99.90
52024;DHT22;38038;45.922;13.604;2023-12-14T20:02:04;4.90;99.90
52024;DHT22;38038;45.922;13.604;2023-12-14T20:04:29;4.90;99.90
52024;DHT22;38038;45.922;13.604;2023-12-14T20:06:55;4.90;99.90
52024;DHT22;38038;45.922;13.604;2023-12-14T20:09:24;5.00;99.90
52024;DHT22;38038;45.922;13.604;2023-12-14T20:11:51;5.10;99.90
52024;DHT22;38038;45.922;13.604;2023-12-14T20:14:18;5.10;99.90
52024;DHT22;38038;45.922;13.604;2023-12-14T20:16:49;5.20;99.90
52024;DHT22;38038;45.922;13.604;2023-12-14T20:19:15;5.30;99.90
52024;DHT22;38038;45.922;13.604;2023-12-14T20:21:46;5.30;99.90
52024;DHT22;38038;45.922;13.604;2023-12-14T20:24:12;5.40;99.90
52024;DHT22;38038;45.922;13.604;2023-12-14T20:26:39;5.40;99.90
52024;DHT22;38038;45.922;13.604;2023-12-14T20:29:06;5.50;99.90
52024;DHT22;38038;45.922;13.604;2023-12-14T20:31:33;5.60;99.90
52024;DHT22;38038;45.922;13.604;2023-12-14T20:34:00;5.60;99.90
52024;DHT22;38038;45.922;13.604;2023-12-14T20:36:26;5.60;99.90
52024;DHT22;38038;45.922;13.604;2023-12-14T20:38:53;5.70;99.90
52024;DHT22;38038;45.922;13.604;2023-12-14T20:41:19;5.60;99.90
52024;DHT22;38038;45.922;13.604;2023-12-14T20:43:45;5.70;99.90
52024;DHT22;38038;45.922;13.604;2023-12-14T20:46:12;5.60;99.90
52024;DHT22;38038;45.922;13.604;2023-12-14T20:48:38;5.50;99.90
52024;DHT22;38038;45.922;13.604;2023-12-14T20:51:06;5.50;99.90
52024;DHT22;38038;45.922;13.604;2023-12-14T20:53:32;5.50;99.90
52024;DHT22;38038;45.922;13.604;2023-12-14T20:55:58;5.50;99.90
52024;DHT22;38038;45.922;13.604;2023-12-14T20:58:24;5.60;99.90
52024;DHT22;38038;45.922;13.604;2023-12-14T21:00:50;5.50;99.90
52024;DHT22;38038;45.922;13.604;2023-12-14T21:03:16;5.50;99.90
52024;DHT22;38038;45.922;13.604;2023-12-14T21:05:44;5.40;99.90
52024;DHT22;38038;45.922;13.604;2023-12-14T21:08:10;5.20;99.90
52024;DHT22;38038;45.922;13.604;2023-12-14T21:10:35;5.00;99.90
52024;DHT22;38038;45.922;13.604;2023-12-14T21:13:01;4.90;99.90
52024;DHT22;38038;45.922;13.604;2023-12-14T21:15:27;4.90;99.90
52024;DHT22;38038;45.922;13.604;2023-12-14T21:17:52;4.90;99.90
52024;DHT22;38038;45.922;13.604;2023-12-14T21:20:18;4.90;99.90
52024;DHT22;38038;45.922;13.604;2023-12-14T21:22:44;5.00;99.90
52024;DHT22;38038;45.922;13.604;2023-12-14T21:25:10;5.00;99.90
52024;DHT22;38038;45.922;13.604;2023-12-14T21:27:40;4.90;99.90
52024;DHT22;38038;45.922;13.604;2023-12-14T21:30:16;4.70;99.90
52024;DHT22;38038;45.922;13.604;2023-12-14T21:32:43;4.60;99.90
52024;DHT22;38038;45.922;13.604;2023-12-14T21:35:09;4.40;99.90
52024;DHT22;38038;45.922;13.604;2023-12-14T21:37:36;4.30;99.90
52024;DHT22;38038;45.922;13.604;2023-12-14T21:40:02;4.30;99.90
52024;DHT22;38038;45.922;13.604;2023-12-14T21:42:28;4.20;99.90
52024;DHT22;38038;45.922;13.604;2023-12-14T21:44:54;4.20;99.90
52024;DHT22;38038;45.922;13.604;2023-12-14T21:47:20;4.20;99.90
52024;DHT22;38038;45.922;13.604;2023-12-14T21:49:46;4.30;99.90
52024;DHT22;38038;45.922;13.604;2023-12-14T21:52:12;4.40;99.90
52024;DHT22;38038;45.922;13.604;2023-12-14T21:54:38;4.50;99.90
52024;DHT22;38038;45.922;13.604;2023-12-14T21:57:03;4.50;99.90
52024;DHT22;38038;45.922;13.604;2023-12-14T21:59:29;4.50;99.90
52024;DHT22;38038;45.922;13.604;2023-12-14T22:01:57;4.30;99.90
52024;DHT22;38038;45.922;13.604;2023-12-14T22:04:22;4.20;99.90
52024;DHT22;38038;45.922;13.604;2023-12-14T22:06:48;4.10;99.90
52024;DHT22;38038;45.922;13.604;2023-12-14T22:09:15;4.00;99.90
52024;DHT22;38038;45.922;13.604;2023-12-14T22:11:41;4.10;99.90
52024;DHT22;38038;45.922;13.604;2023-12-14T22:14:07;4.00;99.90
52024;DHT22;38038;45.922;13.604;2023-12-14T22:16:33;3.90;99.90
52024;DHT22;38038;45.922;13.604;2023-12-14T22:18:59;4.00;99.90
52024;DHT22;38038;45.922;13.604;2023-12-14T22:21:24;3.90;99.90
52024;DHT22;38038;45.922;13.604;2023-12-14T22:23:50;4.00;99.90
52024;DHT22;38038;45.922;13.604;2023-12-14T22:26:16;4.00;99.90
52024;DHT22;38038;45.922;13.604;2023-12-14T22:28:41;4.00;99.90
52024;DHT22;38038;45.922;13.604;2023-12-14T22:31:07;4.10;99.90
52024;DHT22;38038;45.922;13.604;2023-12-14T22:33:33;4.00;99.90
52024;DHT22;38038;45.922;13.604;2023-12-14T22:35:59;4.00;99.90
52024;DHT22;38038;45.922;13.604;2023-12-14T22:38:24;3.90;99.90
52024;DHT22;38038;45.922;13.604;2023-12-14T22:40:52;3.90;99.90
52024;DHT22;38038;45.922;13.604;2023-12-14T22:43:19;3.90;99.90
52024;DHT22;38038;45.922;13.604;2023-12-14T22:45:45;3.90;99.90
52024;DHT22;38038;45.922;13.604;2023-12-14T22:48:10;4.00;99.90
52024;DHT22;38038;45.922;13.604;2023-12-14T22:50:38;4.10;99.90
52024;DHT22;38038;45.922;13.604;2023-12-14T22:53:04;4.30;99.90
52024;DHT22;38038;45.922;13.604;2023-12-14T22:55:29;4.40;99.90
52024;DHT22;38038;45.922;13.604;2023-12-14T22:57:55;4.50;99.90
52024;DHT22;38038;45.922;13.604;2023-12-14T23:00:23;4.60;99.90
52024;DHT22;38038;45.922;13.604;2023-12-14T23:02:52;4.60;99.90
52024;DHT22;38038;45.922;13.604;2023-12-14T23:05:18;4.40;99.90
52024;DHT22;38038;45.922;13.604;2023-12-14T23:07:45;4.20;99.90
52024;DHT22;38038;45.922;13.604;2023-12-14T23:10:10;4.00;99.90
52024;DHT22;38038;45.922;13.604;2023-12-14T23:12:36;3.80;99.90
52024;DHT22;38038;45.922;13.604;2023-12-14T23:15:03;3.70;99.90
52024;DHT22;38038;45.922;13.604;2023-12-14T23:17:30;3.60;99.90
52024;DHT22;38038;45.922;13.604;2023-12-14T23:19:59;3.50;99.90
52024;DHT22;38038;45.922;13.604;2023-12-14T23:22:26;3.50;99.90
52024;DHT22;38038;45.922;13.604;2023-12-14T23:24:51;3.40;99.90
52024;DHT22;38038;45.922;13.604;2023-12-14T23:27:18;3.50;99.90
52024;DHT22;38038;45.922;13.604;2023-12-14T23:29:44;3.50;99.90
52024;DHT22;38038;45.922;13.604;2023-12-14T23:32:10;3.50;99.90
52024;DHT22;38038;45.922;13.604;2023-12-14T23:34:36;3.50;99.90
52024;DHT22;38038;45.922;13.604;2023-12-14T23:37:02;3.60;99.90
52024;DHT22;38038;45.922;13.604;2023-12-14T23:39:28;3.60;99.90
52024;DHT22;38038;45.922;13.604;2023-12-14T23:41:53;3.60;99.90
52024;DHT22;38038;45.922;13.604;2023-12-14T23:44:19;3.70;99.90
52024;DHT22;38038;45.922;13.604;2023-12-14T23:46:45;3.60;99.90
52024;DHT22;38038;45.922;13.604;2023-12-14T23:49:11;3.60;99.90
52024;DHT22;38038;45.922;13.604;2023-12-14T23:51:37;3.60;99.90
52024;DHT22;38038;45.922;13.604;2023-12-14T23:54:03;3.90;99.90
52024;DHT22;38038;45.922;13.604;2023-12-14T23:56:28;4.00;99.90
52024;DHT22;38038;45.922;13.604;2023-12-14T23:58:54;4.10;99.90
